Time;durP1;ratioP1;P1;durP2;ratioP2;P2;SDS_P1;SDS_P2;PMS_P1;PMS_P2;Temp;Humidity;BMP_temperature;BMP_pressure;BME280_temperature;BME280_humidity;BME280_pressure;Samples;Min_cycle;Max_cycle;Signal;HPM_P1;HPM_P2
2022/04/09 00:19:25;;;;;;;13.80;10.00;;;;;;;5.17;70.73;96449.20;432540;1271;108912;-40
2022/04/09 00:29:33;;;;;;;16.20;11.10;;;;;;;5.35;71.00;96440.07;432736;1270;97916;-41
2022/04/09 00:39:40;;;;;;;14.80;10.90;;;;;;;5.27;70.99;96454.58;432720;1270;111104;-43
2022/04/09 00:49:48;;;;;;;25.70;16.00;;;;;;;5.08;71.13;96461.69;432805;1270;108739;-40
2022/04/09 00:59:57;;;;;;;12.80;9.80;;;;;;;5.05;71.56;96451.02;432698;1269;108795;-41
2022/04/09 01:10:05;;;;;;;17.90;13.10;;;;;;;5.11;71.46;96414.66;432715;1269;97999;-40
2022/04/09 01:20:17;;;;;;;16.00;11.90;;;;;;;5.15;71.85;96411.50;433348;1261;107737;-41
2022/04/09 01:30:24;;;;;;;18.60;12.90;;;;;;;5.15;71.73;96415.37;432529;1271;97900;-43
2022/04/09 01:40:31;;;;;;;31.40;19.10;;;;;;;5.00;71.88;96402.77;432691;1270;111275;-40
2022/04/09 01:50:39;;;;;;;34.30;19.90;;;;;;;4.80;72.58;96399.77;432638;1271;108767;-39
2022/04/09 02:00:46;;;;;;;28.60;18.90;;;;;;;4.88;72.84;96409.31;432495;1270;98031;-41
2022/04/09 02:10:54;;;;;;;24.60;16.10;;;;;;;4.74;73.00;96342.41;432530;1269;111039;-40
2022/04/09 02:21:01;;;;;;;22.10;16.70;;;;;;;4.69;73.31;96314.15;432346;1271;109089;-41
2022/04/09 02:31:08;;;;;;;22.40;12.80;;;;;;;4.82;73.52;96305.37;432475;1271;97899;-40
2022/04/09 02:41:15;;;;;;;21.30;13.00;;;;;;;4.81;73.56;96312.17;432504;1270;108988;-43
2022/04/09 02:51:23;;;;;;;17.70;13.10;;;;;;;4.80;73.81;96340.97;432638;1271;97913;-41
2022/04/09 03:01:31;;;;;;;25.80;17.90;;;;;;;4.89;74.18;96351.88;432506;1271;111100;-41
2022/04/09 03:11:39;;;;;;;28.30;20.00;;;;;;;4.77;74.06;96362.71;432463;1271;108980;-40
2022/04/09 03:21:46;;;;;;;34.80;23.70;;;;;;;4.60;74.21;96379.87;432470;1271;98005;-40
2022/04/09 03:31:54;;;;;;;29.10;19.90;;;;;;;4.51;74.44;96383.50;432466;1271;98212;-41
2022/04/09 03:42:01;;;;;;;22.20;17.80;;;;;;;4.46;74.97;96387.04;432341;1271;109740;-43
2022/04/09 03:52:25;;;;;;;16.10;13.40;;;;;;;4.42;75.58;96393.80;432373;1271;97936;-41
2022/04/09 04:02:32;;;;;;;13.30;10.70;;;;;;;4.43;75.97;96407.58;432413;1271;111022;-40
2022/04/09 04:22:46;;;;;;;15.20;9.30;;;;;;;4.45;77.17;96431.92;432586;1271;97516;-40
2022/04/09 04:32:53;;;;;;;10.50;7.00;;;;;;;4.43;77.36;96451.17;432499;1271;108752;-42
2022/04/09 04:43:01;;;;;;;8.70;6.20;;;;;;;4.45;77.69;96441.15;432283;1271;97900;-42
2022/04/09 04:53:08;;;;;;;12.20;9.00;;;;;;;4.42;78.06;96447.70;432528;1271;111312;-41
2022/04/09 05:13:22;;;;;;;8.60;5.60;;;;;;;4.06;80.23;96509.55;432395;1271;97920;-42
2022/04/09 05:23:30;;;;;;;9.50;6.10;;;;;;;3.81;81.06;96519.42;432251;1271;108977;-40
2022/04/09 05:33:37;;;;;;;10.20;5.80;;;;;;;3.56;82.39;96569.33;432392;1271;97884;-39
2022/04/09 05:43:44;;;;;;;19.50;10.40;;;;;;;3.35;83.03;96628.02;432437;1271;109860;-41
2022/04/09 05:53:51;;;;;;;12.40;9.40;;;;;;;3.22;82.60;96673.25;432236;1271;108771;-41
2022/04/09 06:03:58;;;;;;;14.20;9.60;;;;;;;3.10;82.86;96699.50;432626;1271;98076;-40
2022/04/09 06:14:06;;;;;;;10.30;8.60;;;;;;;3.02;83.04;96724.30;432602;1271;108689;-41
2022/04/09 06:24:13;;;;;;;12.80;9.50;;;;;;;2.92;83.17;96753.81;432697;1270;97920;-43
2022/04/09 06:34:20;;;;;;;15.40;10.10;;;;;;;2.95;83.24;96781.19;432734;1270;111088;-41
2022/04/09 06:44:27;;;;;;;11.70;9.00;;;;;;;2.91;83.32;96797.45;432599;1270;108783;-41
2022/04/09 06:54:34;;;;;;;10.20;8.60;;;;;;;3.05;83.03;96834.12;432766;1270;97940;-41
2022/04/09 07:04:41;;;;;;;12.90;10.00;;;;;;;3.29;82.55;96861.78;432828;1270;108788;-44
2022/04/09 07:14:49;;;;;;;11.50;9.30;;;;;;;3.58;82.27;96883.02;432729;1270;97474;-40
2022/04/09 07:24:56;;;;;;;19.90;11.30;;;;;;;3.70;81.69;96901.48;432530;1271;111091;-41
2022/04/09 07:35:05;;;;;;;13.30;9.20;;;;;;;3.85;81.76;96946.93;432379;1271;108979;-44
2022/04/09 07:45:11;;;;;;;14.50;10.30;;;;;;;4.06;81.54;96976.84;432476;1272;97974;-41
2022/04/09 07:55:19;;;;;;;13.40;8.10;;;;;;;4.31;81.50;96994.46;432516;1271;111061;-40
2022/04/09 08:05:25;;;;;;;15.50;8.70;;;;;;;4.59;81.61;96997.65;432534;1271;108950;-40
2022/04/09 08:15:31;;;;;;;15.40;8.60;;;;;;;5.03;81.49;97017.15;432595;1271;98037;-44
2022/04/09 08:25:38;;;;;;;17.80;12.50;;;;;;;5.25;81.32;97067.52;432540;1271;108661;-42
2022/04/09 08:35:46;;;;;;;15.40;10.30;;;;;;;5.17;81.21;97083.95;432369;1271;97805;-42
2022/04/09 08:45:54;;;;;;;10.70;7.10;;;;;;;5.28;81.17;97102.73;432526;1271;111129;-43
2022/04/09 08:56:01;;;;;;;12.40;7.60;;;;;;;5.67;81.07;97130.42;432584;1271;108945;-40
2022/04/09 09:06:23;;;;;;;17.40;11.60;;;;;;;5.77;80.67;97144.19;432640;1271;96689;-41
2022/04/09 09:16:32;;;;;;;16.10;9.70;;;;;;;5.88;80.40;97178.73;428816;1271;5385433;-40
2022/04/09 09:26:40;;;;;;;14.60;6.80;;;;;;;6.13;80.00;97173.29;432581;1271;97785;-41
2022/04/09 09:36:49;;;;;;;9.90;6.00;;;;;;;6.53;79.39;97176.05;432605;1271;98006;-41
2022/04/09 09:47:05;;;;;;;13.80;7.50;;;;;;;6.92;78.69;97196.59;432455;1271;108963;-42
2022/04/09 09:57:19;;;;;;;27.80;14.10;;;;;;;7.12;77.43;97218.01;432423;1271;97922;-43
2022/04/09 10:07:26;;;;;;;17.40;5.10;;;;;;;7.01;76.24;97235.50;432324;1271;110961;-42
2022/04/09 10:27:44;;;;;;;13.90;7.00;;;;;;;7.40;74.00;97272.23;432296;1271;98233;-41
2022/04/09 10:48:30;;;;;;;7.20;3.40;;;;;;;7.68;71.70;97300.49;432441;1271;108881;-41
2022/04/09 10:58:39;;;;;;;9.20;3.90;;;;;;;7.71;70.18;97305.27;432411;1271;97932;-41
2022/04/09 11:08:58;;;;;;;15.50;6.00;;;;;;;7.58;69.82;97324.94;432484;1271;111105;-42
2022/04/09 11:19:05;;;;;;;10.20;4.80;;;;;;;7.34;69.98;97354.04;432400;1271;108750;-42
2022/04/09 11:29:10;;;;;;;7.50;3.40;;;;;;;7.30;70.07;97345.34;432456;1271;108297;-42
2022/04/09 11:39:16;;;;;;;11.00;6.10;;;;;;;7.36;69.86;97362.21;432428;1271;97996;-40
2022/04/09 11:59:35;;;;;;;24.70;9.00;;;;;;;7.39;69.80;97371.48;432404;1271;108859;-41
2022/04/09 12:09:43;;;;;;;13.90;5.80;;;;;;;7.88;69.58;97382.75;432296;1271;108840;-40
2022/04/09 12:19:46;;;;;;;17.10;9.60;;;;;;;8.39;67.80;97406.15;432369;1271;97824;-40
2022/04/09 12:50:19;;;;;;;7.70;3.40;;;;;;;8.07;64.72;97449.83;432335;1271;111052;-41
2022/04/09 13:00:32;;;;;;;12.00;5.70;;;;;;;8.29;61.72;97448.34;432518;1271;108696;-40
2022/04/09 13:10:41;;;;;;;24.10;11.30;;;;;;;8.30;61.24;97474.37;432405;1271;96681;-41
2022/04/09 13:20:48;;;;;;;10.10;4.70;;;;;;;8.43;59.53;97469.46;432371;1271;97968;-43
2022/04/09 13:30:54;;;;;;;11.30;5.70;;;;;;;8.54;58.28;97472.25;432402;1271;110943;-42
2022/04/09 13:41:01;;;;;;;6.00;2.90;;;;;;;8.78;57.48;97465.48;432360;1271;107796;-40
2022/04/09 13:51:09;;;;;;;4.40;2.40;;;;;;;8.94;56.38;97466.13;432482;1271;107848;-42
2022/04/09 14:01:16;;;;;;;6.50;2.40;;;;;;;9.07;52.97;97468.32;432273;1271;97900;-40
2022/04/09 14:11:23;;;;;;;11.70;3.50;;;;;;;9.00;50.80;97472.84;432338;1271;111120;-41
2022/04/09 14:21:29;;;;;;;1.80;1.50;;;;;;;8.78;51.15;97472.01;432325;1271;108898;-40
2022/04/09 14:31:36;;;;;;;3.30;2.20;;;;;;;8.90;49.15;97467.34;432329;1271;96673;-40
2022/04/09 14:41:45;;;;;;;3.20;1.90;;;;;;;8.47;50.08;97476.16;432136;1271;97516;-39
2022/04/09 14:51:52;;;;;;;5.60;2.20;;;;;;;8.28;50.95;97482.10;432246;1273;109999;-41
2022/04/09 15:02:00;;;;;;;9.70;3.70;;;;;;;8.04;51.28;97489.90;432265;1271;107394;-40
2022/04/09 15:12:12;;;;;;;4.50;3.30;;;;;;;8.01;51.82;97498.44;432337;1271;107975;-41
2022/04/09 15:22:20;;;;;;;9.30;3.30;;;;;;;7.97;51.41;97511.60;432425;1271;97910;-40
2022/04/09 15:42:34;;;;;;;11.70;4.40;;;;;;;8.16;52.06;97516.62;432609;1271;109064;-43
2022/04/09 15:52:42;;;;;;;7.30;4.40;;;;;;;8.10;51.05;97526.55;432238;1271;109138;-41
2022/04/09 16:02:49;;;;;;;4.90;3.00;;;;;;;7.89;51.57;97543.10;432233;1273;98713;-41
2022/04/09 16:12:56;;;;;;;4.20;3.10;;;;;;;7.51;52.92;97555.10;432368;1271;97922;-44
2022/04/09 16:23:04;;;;;;;5.20;2.60;;;;;;;7.27;54.00;97562.77;432508;1271;111107;-40
2022/04/09 16:33:11;;;;;;;8.20;3.70;;;;;;;6.99;54.78;97575.02;432355;1271;107218;-41
2022/04/09 16:43:19;;;;;;;3.90;2.10;;;;;;;6.73;55.28;97577.69;432436;1270;108671;-40
2022/04/09 16:53:26;;;;;;;7.60;2.10;;;;;;;6.45;55.49;97590.89;432689;1271;97919;-40
2022/04/09 17:03:34;;;;;;;5.40;2.20;;;;;;;6.17;55.68;97615.66;432504;1271;111385;-40
2022/04/09 17:13:43;;;;;;;5.70;2.90;;;;;;;5.95;56.31;97628.75;432492;1271;108781;-39
2022/04/09 17:23:50;;;;;;;10.50;5.30;;;;;;;5.74;56.87;97635.73;432426;1270;106864;-41
2022/04/09 17:33:56;;;;;;;49.50;19.10;;;;;;;5.43;57.25;97644.26;432431;1271;97926;-40
2022/04/09 17:44:04;;;;;;;41.80;17.40;;;;;;;5.18;57.72;97654.52;432284;1271;111168;-41
2022/04/09 17:54:12;;;;;;;39.50;15.20;;;;;;;4.95;58.13;97669.71;432573;1271;108786;-39
2022/04/09 18:14:25;;;;;;;52.90;15.60;;;;;;;4.61;59.14;97674.86;432509;1271;96712;-40
2022/04/09 18:24:34;;;;;;;47.10;15.20;;;;;;;4.53;59.59;97686.86;432295;1271;110921;-41
2022/04/09 18:34:41;;;;;;;51.50;20.40;;;;;;;4.36;60.03;97703.65;432342;1271;109018;-41
2022/04/09 18:44:49;;;;;;;30.20;14.50;;;;;;;4.20;60.66;97721.99;432363;1271;108742;-41
2022/04/09 18:54:57;;;;;;;12.00;6.00;;;;;;;4.14;61.13;97743.41;432400;1271;97011;-41
2022/04/09 19:05:04;;;;;;;21.60;8.40;;;;;;;4.22;61.66;97763.73;432358;1271;107620;-41
2022/04/09 19:15:12;;;;;;;10.90;6.50;;;;;;;4.32;61.88;97768.63;432544;1271;97932;-41
2022/04/09 19:25:20;;;;;;;21.20;9.50;;;;;;;4.28;62.23;97767.88;432446;1270;111082;-41
2022/04/09 19:35:28;;;;;;;28.30;11.80;;;;;;;4.16;62.69;97779.34;432136;1271;109066;-39
2022/04/09 19:45:35;;;;;;;22.30;11.10;;;;;;;4.05;62.98;97788.05;432337;1271;107838;-40
2022/04/09 19:55:43;;;;;;;22.50;11.30;;;;;;;3.83;63.35;97804.95;432424;1271;96790;-40
2022/04/09 20:05:51;;;;;;;44.90;24.30;;;;;;;3.68;63.79;97813.96;432208;1271;111082;-40
2022/04/09 20:15:58;;;;;;;34.30;19.10;;;;;;;3.60;64.01;97823.00;432531;1271;109069;-41
2022/04/09 20:26:07;;;;;;;20.10;11.30;;;;;;;3.57;64.43;97828.52;432322;1271;97528;-41
2022/04/09 20:36:14;;;;;;;37.80;17.30;;;;;;;3.46;65.00;97838.30;432552;1271;111094;-40
2022/04/09 20:46:22;;;;;;;55.50;24.90;;;;;;;3.47;65.53;97845.02;432247;1269;108865;-41
2022/04/09 20:56:29;;;;;;;33.30;16.20;;;;;;;3.51;65.81;97851.61;432349;1271;108765;-40
2022/04/09 21:06:38;;;;;;;38.50;18.60;;;;;;;3.33;65.79;97855.24;432355;1270;98051;-40
2022/04/09 21:16:45;;;;;;;40.90;22.80;;;;;;;3.16;66.18;97860.44;428162;1271;5387316;-39
2022/04/09 21:26:53;;;;;;;41.10;23.60;;;;;;;3.03;66.27;97861.78;432380;1271;108914;-42
2022/04/09 21:37:00;;;;;;;30.50;13.60;;;;;;;2.97;66.85;97866.69;432144;1270;98588;-46
2022/04/09 21:47:11;;;;;;;53.80;24.00;;;;;;;3.01;67.28;97878.86;432165;1270;111110;-42
2022/04/09 22:07:23;;;;;;;76.80;32.40;;;;;;;2.79;67.78;97896.51;432103;1270;108592;-40
2022/04/09 22:17:31;;;;;;;30.90;16.00;;;;;;;2.70;68.13;97908.38;432229;1269;97920;-40
2022/04/09 22:27:38;;;;;;;20.10;10.80;;;;;;;2.64;68.08;97922.86;432213;1271;111135;-40
2022/04/09 22:37:44;;;;;;;29.90;11.40;;;;;;;2.64;68.36;97930.73;431993;1271;108939;-41
2022/04/09 22:47:51;;;;;;;16.60;9.20;;;;;;;2.64;68.57;97932.70;432042;1271;98480;-40
2022/04/09 22:57:58;;;;;;;24.60;12.90;;;;;;;2.55;68.81;97933.23;432035;1273;111076;-40
2022/04/09 23:08:05;;;;;;;37.40;18.10;;;;;;;2.36;68.85;97929.05;432203;1272;109008;-40
2022/04/09 23:18:12;;;;;;;21.80;14.50;;;;;;;2.15;69.30;97932.80;432393;1271;110309;-40
2022/04/09 23:28:19;;;;;;;25.80;14.10;;;;;;;2.07;69.54;97947.00;432187;1271;97334;-41
2022/04/09 23:38:26;;;;;;;29.00;12.80;;;;;;;2.08;69.43;97950.65;432258;1271;111087;-40
2022/04/09 23:48:33;;;;;;;14.80;8.50;;;;;;;2.03;69.68;97949.63;432126;1272;108797;-42
